This is the latest recevied weather packets stored in our database for station/object KD7JB. If no packets are shown the sender has not sent any weather packets the latest 10 day(s).
| Time | Temp. | Humidity | Pressure | Rain* | Wind** | Luminosity | Snow |
|---|---|---|---|---|---|---|---|
| 1777544982 | 9.44° C | 62% | 1183.4 hPa | 0 mm | - | 0 W/m² | - |
| 1777544678 | 9.44° C | 62% | 1183.4 hPa | 0 mm | - | 0 W/m² | - |
| 1777544373 | 8.89° C | 63% | 1183.3 hPa | 0 mm | - | 0 W/m² | - |
| 1777544071 | 8.33° C | 65% | 1183.3 hPa | 0 mm | - | 0 W/m² | - |
| 1777543768 | 7.78° C | 68% | 1183.3 hPa | 0 mm | - | 0 W/m² | - |
| 1777543464 | 8.33° C | 66% | 1183.5 hPa | 0 mm | - | 0 W/m² | - |
| 1777543160 | 8.33° C | 67% | 1183.4 hPa | 0 mm | - | 0 W/m² | - |
| 1777542856 | 8.33° C | 65% | 1183.3 hPa | 0 mm | - | 0 W/m² | - |
| 1777542554 | 7.78° C | 67% | 1183.4 hPa | 0 mm | - | 0 W/m² | - |
| 1777542249 | 7.78° C | 67% | 1183.5 hPa | 0 mm | - | 0 W/m² | - |
| 1777541947 | 8.33° C | 66% | 1183.5 hPa | 0 mm | - | 0 W/m² | - |
| 1777541644 | 8.33° C | 64% | 1183.4 hPa | 0 mm | - | 0 W/m² | - |
| 1777541340 | 8.33° C | 65% | 1183.5 hPa | 0 mm | - | 0 W/m² | - |
| 1777541041 | 8.89° C | 65% | 1183.4 hPa | 0 mm | - | 0 W/m² | - |
| 1777540738 | 9.44° C | 63% | 1183.5 hPa | 0 mm | - | 0 W/m² | - |
| 1777540436 | 9.44° C | 61% | 1183.5 hPa | 0 mm | - | 0 W/m² | - |
| 1777540132 | 10° C | 61% | 1183.5 hPa | 0 mm | - | 0 W/m² | - |
| 1777539827 | 10° C | 60% | 1183.3 hPa | 0 mm | - | 0 W/m² | - |
| 1777539524 | 10° C | 61% | 1183.3 hPa | 0 mm | - | 0 W/m² | - |
| 1777539220 | 10° C | 61% | 1183.4 hPa | 0 mm | - | 0 W/m² | - |
| 1777538917 | 9.44° C | 62% | 1183.4 hPa | 0 mm | - | 0 W/m² | - |
| 1777538612 | 8.89° C | 64% | 1183.7 hPa | 0 mm | - | 0 W/m² | - |
| 1777538308 | 8.89° C | 65% | 1183.6 hPa | 0 mm | - | 0 W/m² | - |
| 1777538004 | 9.44° C | 64% | 1183.6 hPa | 0 mm | - | 0 W/m² | - |
| 1777537700 | 9.44° C | 63% | 1183.5 hPa | 0 mm | - | 0 W/m² | - |
* Rain latest hour (hover to see other rain measurements)
** Current wind speed in m/s (hover to see current wind gust speed)